Main page
METAR-TAF:

METAR-TAF

Airports :

Ardabil Airport

Ardabil, Iran

latitude: 38-19-35N, longitude: 048-25-28E, elevation: 1315 m

Current weather observation

The report was made 29 minutes ago, at 07:00 UTC
Wind 6 kt from the North/Northwest
Temperature -9°C
Humidity 79%
Pressure 1020 hPa
Visibility 10 km or more
no clouds below 1500 m and no cumulonimbus

METAR: OITL 250700Z 33006KT CAVOK M09/M12 Q1020

Time: 10:59 (07:29 UTC)

Forecast

The report was made 1 hour and 59 minutes ago, at 05:30 UTC
Forecast valid from 25 at 06 UTC to 25 at 15 UTC
Wind 8 kt from the Northwest
Visibility: 8000 m
Few clouds at a height of 3000 ft
Scattered clouds at a height of 10000 ft

TAF: OITL 250530Z 2506/2515 32008KT 8000 FEW030 SCT100

Weather observations and forecasts of more than 4000 airports (METAR and TAF reports).

The available stations are represented by yellow and red dots on the map.

Hover mouse over dot to see the name of the station.

Then click to see weather observations and forecasts.

To change the map : click on the green buttons with a black cross to zoom in, on the green button with a dash to zoom out, or on the green arrows for adjacent maps.


METAR-TAF: